aviador You're here:

OIAM Decoded Metar

BANDAR MAHSHAHR in IRAN
Report Time2017-09-25 16:00:00
UTC Time2017-09-25 16:47:03
Flight Rules vfr VFR
WindCalm
Visibility9999 m
Phenomena:N/A
Clouds:N/A
Expected CloudBase > 5,200 ft AGL from Temp-Dew spread
CeilingNone
Temp34°C (ISA +19)
Dew Point21°C (47% RH)
Heat Index37.4°C
QNH1005 hPa
Density Alt2,772 ft
Elevation13 ft
Report Wrong Elevation
Raw Report
METAR OIAM 251600Z 00000KT CAVOK 34/21 Q1005=

Extra information for OIAM:More info

Metar Taf Metar & Taf Last 4 Metars F.Rules Stats Wind Profile Meteogram Temp Stats Airport Information Weather charts Add Link Nearby VenuesMetar ALERT Operation Metar Decoded Social comments